createdAt,value
2019-01-31T00:01:57.719Z,2.93
2019-01-31T00:04:38.343Z,2.17
2019-01-31T00:07:18.999Z,2.80
2019-01-31T00:09:59.785Z,1.33
2019-01-31T00:12:40.735Z,4.10
2019-01-31T00:15:21.579Z,2.00
2019-01-31T00:18:02.190Z,4.43
2019-01-31T00:20:42.630Z,2.30
2019-01-31T00:23:23.561Z,3.27
2019-01-31T00:26:04.182Z,2.23
2019-01-31T00:28:45.154Z,2.57
2019-01-31T00:31:25.858Z,3.47
2019-01-31T00:34:07.057Z,3.73
2019-01-31T00:36:47.589Z,2.60
2019-01-31T00:39:28.560Z,2.50
2019-01-31T00:42:09.610Z,1.47
2019-01-31T00:44:50.276Z,2.10
2019-01-31T00:47:31.237Z,2.00
2019-01-31T00:50:12.102Z,1.70
2019-01-31T00:52:53.671Z,1.40
2019-01-31T00:55:34.780Z,2.50
2019-01-31T00:58:15.753Z,2.57
2019-01-31T01:00:56.426Z,7.47
2019-01-31T01:03:37.371Z,2.97
2019-01-31T01:06:18.017Z,3.03
2019-01-31T01:09:07.602Z,2.27
2019-01-31T01:11:41.220Z,1.67
2019-01-31T01:14:22.438Z,2.13
2019-01-31T01:17:03.533Z,3.33
2019-01-31T01:19:44.427Z,3.37
2019-01-31T01:22:25.476Z,1.40
2019-01-31T01:25:06.514Z,1.70
2019-01-31T01:27:47.298Z,2.63
2019-01-31T01:30:27.898Z,1.47
2019-01-31T01:33:08.459Z,5.63
2019-01-31T01:35:49.384Z,2.30
2019-01-31T01:38:30.370Z,5.27
2019-01-31T01:41:11.025Z,4.57
2019-01-31T01:43:51.813Z,6.50
2019-01-31T01:46:32.518Z,7.87
2019-01-31T01:49:13.519Z,9.20
2019-01-31T01:51:54.124Z,8.60
2019-01-31T01:54:34.911Z,7.53
2019-01-31T01:57:15.431Z,7.80
2019-01-31T01:59:56.029Z,6.97
2019-01-31T02:02:36.797Z,8.27
2019-01-31T02:05:17.481Z,8.87
2019-01-31T02:07:58.285Z,7.43
2019-01-31T02:10:39.117Z,5.77
2019-01-31T02:13:20.189Z,9.80
2019-01-31T02:16:00.657Z,6.47
2019-01-31T02:18:41.385Z,9.90
2019-01-31T02:21:22.044Z,9.93
2019-01-31T02:24:02.751Z,8.23
2019-01-31T02:26:43.482Z,9.37
2019-01-31T02:29:24.762Z,7.07
2019-01-31T02:32:05.189Z,9.23
2019-01-31T02:34:46.415Z,7.00
2019-01-31T02:37:38.478Z,5.03
2019-01-31T02:40:45.726Z,11.10
2019-01-31T02:43:40.887Z,5.70
2019-01-31T02:46:48.129Z,6.97
2019-01-31T02:49:44.235Z,4.30
2019-01-31T02:52:51.469Z,7.10
2019-01-31T02:55:32.467Z,3.63
2019-01-31T02:58:13.013Z,6.43
2019-01-31T03:00:53.734Z,4.50
2019-01-31T03:03:34.872Z,8.17
2019-01-31T03:06:15.738Z,9.13
2019-01-31T03:08:56.357Z,6.80
2019-01-31T03:11:37.000Z,11.50
2019-01-31T03:14:17.897Z,8.67
2019-01-31T03:16:58.868Z,9.67
2019-01-31T03:19:39.793Z,11.03
2019-01-31T03:22:20.745Z,7.90
2019-01-31T03:25:01.565Z,5.40
2019-01-31T03:27:42.554Z,4.40
2019-01-31T03:30:24.982Z,5.60
2019-01-31T03:33:05.836Z,10.13
2019-01-31T03:35:46.235Z,6.33
2019-01-31T03:38:27.166Z,8.53
2019-01-31T03:41:08.111Z,5.30
2019-01-31T03:43:48.465Z,5.00
2019-01-31T03:46:28.864Z,4.27
2019-01-31T03:49:09.815Z,3.73
2019-01-31T03:51:50.413Z,4.90
2019-01-31T03:54:30.964Z,4.30
2019-01-31T03:57:11.670Z,3.50
2019-01-31T03:59:52.321Z,5.53
2019-01-31T04:02:33.063Z,3.87
2019-01-31T04:05:14.001Z,2.77
2019-01-31T04:07:54.534Z,5.17
2019-01-31T04:10:35.278Z,3.53
2019-01-31T04:13:16.205Z,1.90
2019-01-31T04:15:56.777Z,3.17
2019-01-31T04:18:37.774Z,3.03
2019-01-31T04:21:18.507Z,3.97
2019-01-31T04:23:57.645Z,2.47
2019-01-31T04:26:45.699Z,2.20
2019-01-31T04:29:33.814Z,3.07
2019-01-31T04:32:21.873Z,5.37
2019-01-31T04:35:10.094Z,6.73
2019-01-31T04:37:58.218Z,5.60
2019-01-31T04:40:46.362Z,7.70
2019-01-31T04:43:34.560Z,5.10
2019-01-31T04:46:22.617Z,5.27
2019-01-31T04:49:10.901Z,10.83
2019-01-31T04:51:58.967Z,8.47
2019-01-31T04:54:39.760Z,5.80
2019-01-31T04:57:20.385Z,10.13
2019-01-31T04:59:59.505Z,9.13
2019-01-31T05:02:47.629Z,4.67
2019-01-31T05:05:35.673Z,3.23
2019-01-31T05:08:23.719Z,3.33
2019-01-31T05:11:11.769Z,2.83
2019-01-31T05:13:59.822Z,2.53
2019-01-31T05:16:47.969Z,2.73
2019-01-31T05:19:36.001Z,5.03
2019-01-31T05:22:24.069Z,5.47
2019-01-31T05:25:12.462Z,5.47
2019-01-31T05:28:00.531Z,1.73
2019-01-31T05:30:48.578Z,3.47
2019-01-31T05:33:36.650Z,2.53
2019-01-31T05:36:24.834Z,3.97
2019-01-31T05:39:13.488Z,5.53
2019-01-31T05:42:01.930Z,4.33
2019-01-31T05:44:50.087Z,2.73
2019-01-31T05:47:38.207Z,3.17
2019-01-31T05:50:26.365Z,2.23
2019-01-31T05:53:14.677Z,4.07
2019-01-31T05:56:03.011Z,4.03
2019-01-31T05:58:51.079Z,5.60
2019-01-31T06:01:39.106Z,2.77
2019-01-31T06:04:27.159Z,3.40
2019-01-31T06:07:15.273Z,4.40
2019-01-31T06:10:03.427Z,4.93
2019-01-31T06:12:51.795Z,4.53
2019-01-31T06:15:39.904Z,8.00
2019-01-31T06:18:27.956Z,4.20
2019-01-31T06:21:16.077Z,8.00
2019-01-31T06:24:04.755Z,5.57
2019-01-31T06:26:52.792Z,5.27
2019-01-31T06:29:40.846Z,7.47
2019-01-31T06:32:29.085Z,9.03
2019-01-31T06:35:17.205Z,9.67
2019-01-31T06:38:05.312Z,9.57
2019-01-31T06:40:53.837Z,10.80
2019-01-31T06:43:41.906Z,7.90
2019-01-31T06:46:29.949Z,9.77
2019-01-31T06:49:18.004Z,25.53
2019-01-31T06:52:06.165Z,16.23
2019-01-31T06:54:46.753Z,19.70
2019-01-31T06:57:27.126Z,11.33
2019-01-31T07:00:08.129Z,21.80
2019-01-31T07:02:48.670Z,22.40
2019-01-31T07:05:29.489Z,13.57
2019-01-31T07:08:10.278Z,9.53
2019-01-31T07:10:51.294Z,9.57
2019-01-31T07:13:33.966Z,5.47
2019-01-31T07:16:15.254Z,6.70
2019-01-31T07:18:55.885Z,5.87
2019-01-31T07:21:36.497Z,9.07
2019-01-31T07:24:17.225Z,5.87
2019-01-31T07:26:57.809Z,4.90
2019-01-31T07:29:38.534Z,5.87
2019-01-31T07:32:19.518Z,5.17
2019-01-31T07:35:00.436Z,4.40
2019-01-31T07:37:40.982Z,8.40
2019-01-31T07:40:21.758Z,6.23
2019-01-31T07:43:02.986Z,7.00
2019-01-31T07:45:43.587Z,7.43
2019-01-31T07:48:24.394Z,4.80
2019-01-31T07:51:05.085Z,12.07
2019-01-31T07:53:45.673Z,4.83
2019-01-31T07:56:26.539Z,7.33
2019-01-31T07:59:07.473Z,6.33
2019-01-31T08:01:48.733Z,5.33
2019-01-31T08:04:29.291Z,7.63
2019-01-31T08:07:10.695Z,5.77
2019-01-31T08:09:51.181Z,7.97
2019-01-31T08:12:34.554Z,9.83
2019-01-31T08:15:14.799Z,7.53
2019-01-31T08:17:55.794Z,4.23
2019-01-31T08:20:36.505Z,7.10
2019-01-31T08:23:17.332Z,6.20
2019-01-31T08:25:57.845Z,8.63
2019-01-31T08:28:38.401Z,8.13
2019-01-31T08:31:19.526Z,6.73
2019-01-31T08:34:00.261Z,10.87
2019-01-31T08:36:40.956Z,7.57
2019-01-31T08:39:21.518Z,6.33
2019-01-31T08:42:03.908Z,6.53
2019-01-31T08:44:44.591Z,5.77
2019-01-31T08:47:25.328Z,6.33
2019-01-31T08:52:47.973Z,4.97
2019-01-31T08:55:28.694Z,7.43
2019-01-31T08:58:09.338Z,6.67
2019-01-31T09:00:50.233Z,7.03
2019-01-31T09:03:31.442Z,6.70
2019-01-31T09:06:11.853Z,7.70
2019-01-31T09:08:51.060Z,7.20
2019-01-31T09:11:39.174Z,4.80
2019-01-31T09:14:27.277Z,6.20
2019-01-31T09:17:15.395Z,5.70
2019-01-31T09:20:03.515Z,9.03
2019-01-31T09:22:54.080Z,5.23
2019-01-31T09:26:01.490Z,2.87
2019-01-31T09:29:08.733Z,5.13
2019-01-31T09:32:15.978Z,5.37
2019-01-31T09:35:23.217Z,9.93
2019-01-31T09:38:30.457Z,5.77
2019-01-31T09:41:24.577Z,8.03
2019-01-31T09:44:31.813Z,4.83
2019-01-31T09:47:39.062Z,4.17
2019-01-31T09:50:46.293Z,5.03
2019-01-31T09:53:27.269Z,5.43
2019-01-31T09:58:53.740Z,3.75
2019-01-31T10:01:34.209Z,4.97
2019-01-31T10:04:14.986Z,5.33
2019-01-31T10:06:55.409Z,4.93
2019-01-31T10:09:36.085Z,5.43
2019-01-31T10:12:16.676Z,6.57
2019-01-31T10:14:57.398Z,5.03
2019-01-31T10:17:38.683Z,6.23
2019-01-31T10:20:20.380Z,3.83
2019-01-31T10:23:01.126Z,3.63
2019-01-31T10:25:41.709Z,6.47
2019-01-31T10:28:22.565Z,4.40
2019-01-31T10:31:03.566Z,5.30
2019-01-31T10:33:44.186Z,4.43
2019-01-31T10:36:24.905Z,5.43
2019-01-31T10:39:05.825Z,4.23
2019-01-31T10:41:46.681Z,3.87
2019-01-31T10:44:27.489Z,3.40
2019-01-31T10:47:08.757Z,5.93
2019-01-31T10:49:49.522Z,2.83
2019-01-31T10:52:30.070Z,4.30
2019-01-31T10:55:10.485Z,2.90
2019-01-31T11:00:33.042Z,4.67
2019-01-31T11:03:14.241Z,5.07
2019-01-31T11:05:54.887Z,5.30
2019-01-31T11:11:17.901Z,4.00
2019-01-31T11:14:19.193Z,6.15
2019-01-31T11:17:26.425Z,4.35
2019-01-31T11:20:33.682Z,4.60
2019-01-31T11:23:29.204Z,4.90
2019-01-31T11:26:36.445Z,3.57
2019-01-31T11:29:43.686Z,5.93
2019-01-31T11:32:51.161Z,5.23
2019-01-31T11:35:58.405Z,5.27
2019-01-31T11:42:33.674Z,7.53
2019-01-31T11:45:26.979Z,5.33
2019-01-31T11:48:19.141Z,6.37
2019-01-31T11:51:26.377Z,3.17
2019-01-31T11:54:06.893Z,4.03
2019-01-31T11:56:47.494Z,7.93
2019-01-31T11:59:27.867Z,5.37
2019-01-31T12:02:08.425Z,9.63
2019-01-31T12:04:49.402Z,6.50
2019-01-31T12:07:30.429Z,5.90
2019-01-31T12:10:11.338Z,4.73
2019-01-31T12:12:51.993Z,5.27
2019-01-31T12:15:32.320Z,6.23
2019-01-31T12:18:13.133Z,4.40
2019-01-31T12:20:53.965Z,5.63
2019-01-31T12:23:34.657Z,6.10
2019-01-31T12:26:15.669Z,4.47
2019-01-31T12:28:56.396Z,5.77
2019-01-31T12:31:36.914Z,4.10
2019-01-31T12:34:17.717Z,6.03
2019-01-31T12:36:58.397Z,3.87
2019-01-31T12:39:38.952Z,7.37
2019-01-31T12:42:20.886Z,4.10
2019-01-31T12:45:01.771Z,3.10
2019-01-31T12:47:42.545Z,4.67
2019-01-31T12:53:05.481Z,3.30
2019-01-31T12:55:46.268Z,2.33
2019-01-31T12:58:33.632Z,3.87
2019-01-31T13:01:09.492Z,5.03
2019-01-31T13:06:36.270Z,6.40
2019-01-31T13:09:17.630Z,4.37
2019-01-31T13:12:01.757Z,3.77
2019-01-31T13:14:42.981Z,5.43
2019-01-31T13:17:26.752Z,4.97
2019-01-31T13:20:08.782Z,5.13
2019-01-31T13:22:49.641Z,6.53
2019-01-31T13:25:30.181Z,4.83
2019-01-31T13:28:11.100Z,6.33
2019-01-31T13:30:51.886Z,3.93
2019-01-31T13:33:32.653Z,6.03
2019-01-31T13:36:13.638Z,3.40
2019-01-31T13:38:54.445Z,6.67
2019-01-31T13:41:35.458Z,5.70
2019-01-31T13:44:15.945Z,4.97
2019-01-31T13:46:56.876Z,4.97
2019-01-31T13:49:37.788Z,5.03
2019-01-31T13:52:18.445Z,3.73
2019-01-31T13:54:59.319Z,4.73
2019-01-31T13:57:40.471Z,4.53
2019-01-31T14:00:20.917Z,4.13
2019-01-31T14:03:01.635Z,4.67
2019-01-31T14:05:42.561Z,5.73
2019-01-31T14:08:23.283Z,5.27
2019-01-31T14:13:49.904Z,9.50
2019-01-31T14:16:30.403Z,5.03
2019-01-31T14:19:10.947Z,8.97
2019-01-31T14:21:51.547Z,5.20
2019-01-31T14:24:32.432Z,5.13
2019-01-31T14:27:12.690Z,6.17
2019-01-31T14:30:00.821Z,7.07
2019-01-31T14:35:58.844Z,3.77
2019-01-31T14:38:46.877Z,6.43
2019-01-31T14:41:35.000Z,4.23
2019-01-31T14:44:23.110Z,6.20
2019-01-31T14:47:11.234Z,5.60
2019-01-31T14:49:59.542Z,5.83
2019-01-31T14:52:47.902Z,3.10
2019-01-31T14:55:28.987Z,5.87
2019-01-31T14:58:10.117Z,6.07
2019-01-31T15:00:50.844Z,3.23
2019-01-31T15:03:31.590Z,7.00
2019-01-31T15:06:12.319Z,3.50
2019-01-31T15:08:53.010Z,8.00
2019-01-31T15:11:34.024Z,5.87
2019-01-31T15:14:13.203Z,6.03
2019-01-31T15:17:01.334Z,5.33
2019-01-31T15:19:49.450Z,4.37
2019-01-31T15:22:37.580Z,3.33
2019-01-31T15:25:25.699Z,3.53
2019-01-31T15:28:14.061Z,3.33
2019-01-31T15:31:02.405Z,10.47
2019-01-31T15:33:50.526Z,7.20
2019-01-31T15:36:38.727Z,5.23
2019-01-31T15:40:08.001Z,12.03
2019-01-31T15:42:56.364Z,7.07
2019-01-31T15:45:44.558Z,6.57
2019-01-31T15:48:32.704Z,5.43
2019-01-31T15:51:20.822Z,5.83
2019-01-31T15:54:02.089Z,6.57
2019-01-31T15:56:42.858Z,9.00
2019-01-31T15:59:23.629Z,10.00
2019-01-31T16:04:46.494Z,10.27
2019-01-31T16:07:27.594Z,11.97
2019-01-31T16:10:09.083Z,13.70
2019-01-31T16:12:50.411Z,11.23
2019-01-31T16:15:31.244Z,14.23
2019-01-31T16:18:12.490Z,8.90
2019-01-31T16:20:53.018Z,14.77
2019-01-31T16:23:34.009Z,20.83
2019-01-31T16:26:14.791Z,22.63
2019-01-31T16:28:55.420Z,13.00
2019-01-31T16:34:18.161Z,10.93
2019-01-31T16:36:58.995Z,20.60
2019-01-31T16:39:39.846Z,12.90
2019-01-31T16:42:20.450Z,11.13
2019-01-31T16:45:06.690Z,9.47
2019-01-31T16:47:44.093Z,7.20
2019-01-31T16:50:25.023Z,7.67
2019-01-31T16:53:06.293Z,5.83
2019-01-31T16:55:46.902Z,5.40
2019-01-31T16:58:27.734Z,7.03
2019-01-31T17:01:08.447Z,8.97
2019-01-31T17:03:49.188Z,5.03
2019-01-31T17:06:30.237Z,24.43
2019-01-31T17:09:10.873Z,5.90
2019-01-31T17:11:51.685Z,8.17
2019-01-31T17:14:32.890Z,10.83
2019-01-31T17:17:13.470Z,14.20
2019-01-31T17:19:54.078Z,23.83
2019-01-31T17:22:34.929Z,22.37
2019-01-31T17:25:15.628Z,23.73
2019-01-31T17:27:56.621Z,26.20
2019-01-31T17:30:25.793Z,29.77
2019-01-31T17:33:14.101Z,19.93
2019-01-31T17:36:02.182Z,25.30
2019-01-31T17:38:50.360Z,25.90
2019-01-31T17:41:38.520Z,32.10
2019-01-31T17:44:26.757Z,32.70
2019-01-31T17:47:15.309Z,45.67
2019-01-31T17:50:03.781Z,59.30
2019-01-31T17:53:04.341Z,57.10
2019-01-31T17:55:34.314Z,30.53
2019-01-31T17:58:15.513Z,25.13
2019-01-31T18:00:59.445Z,25.97
2019-01-31T18:06:45.549Z,26.90
2019-01-31T18:09:26.032Z,32.53
2019-01-31T18:12:07.202Z,35.50
2019-01-31T18:14:48.201Z,35.50
2019-01-31T18:17:28.645Z,31.07
2019-01-31T18:20:09.437Z,26.47
2019-01-31T18:22:50.223Z,30.20
2019-01-31T18:25:31.292Z,30.27
2019-01-31T18:28:12.563Z,27.60
2019-01-31T18:30:53.453Z,23.63
2019-01-31T18:33:34.086Z,18.87
2019-01-31T18:36:14.795Z,16.83
2019-01-31T18:38:57.607Z,16.37
2019-01-31T18:41:38.141Z,16.83
2019-01-31T18:44:18.741Z,16.80
2019-01-31T18:46:59.323Z,18.60
2019-01-31T18:49:40.201Z,17.43
2019-01-31T18:52:20.906Z,18.90
2019-01-31T18:55:01.521Z,17.33
2019-01-31T18:57:42.738Z,15.23
2019-01-31T19:00:23.753Z,13.10
2019-01-31T19:03:04.663Z,15.73
2019-01-31T19:05:45.829Z,18.37
2019-01-31T19:08:26.809Z,14.33
2019-01-31T19:11:07.543Z,14.73
2019-01-31T19:16:44.602Z,16.33
2019-01-31T19:19:25.582Z,17.20
2019-01-31T19:22:05.990Z,17.50
2019-01-31T19:24:46.894Z,16.83
2019-01-31T19:27:16.246Z,17.37
2019-01-31T19:30:05.568Z,15.93
2019-01-31T19:32:53.706Z,17.53
2019-01-31T19:35:41.842Z,16.50
2019-01-31T19:38:29.975Z,17.50
2019-01-31T19:41:18.084Z,18.67
2019-01-31T19:44:06.256Z,16.97
2019-01-31T19:46:54.378Z,18.73
2019-01-31T19:49:42.528Z,18.07
2019-01-31T19:52:30.670Z,19.97
2019-01-31T19:55:10.993Z,20.67
2019-01-31T19:57:51.561Z,23.00
2019-01-31T20:00:32.181Z,20.70
2019-01-31T20:03:12.930Z,21.33
2019-01-31T20:05:53.400Z,21.23
2019-01-31T20:08:33.973Z,26.17
2019-01-31T20:11:15.045Z,21.27
2019-01-31T20:13:55.638Z,24.53
2019-01-31T20:16:36.846Z,25.27
2019-01-31T20:19:17.539Z,24.00
2019-01-31T20:21:58.241Z,20.13
2019-01-31T20:24:38.877Z,19.17
2019-01-31T20:27:19.767Z,21.43
2019-01-31T20:30:00.494Z,22.37
2019-01-31T20:32:41.289Z,36.43
2019-01-31T20:35:11.429Z,79.47
2019-01-31T20:37:52.559Z,48.23
2019-01-31T20:40:33.949Z,38.47
2019-01-31T20:43:14.775Z,33.93
2019-01-31T20:45:55.586Z,36.80
2019-01-31T20:48:36.193Z,20.97
2019-01-31T20:51:16.924Z,23.13
2019-01-31T20:53:45.909Z,21.37
2019-01-31T20:56:34.062Z,21.73
2019-01-31T20:59:22.172Z,16.50
2019-01-31T21:02:10.342Z,21.70
2019-01-31T21:04:58.458Z,17.20
2019-01-31T21:07:46.693Z,18.77
2019-01-31T21:10:34.806Z,18.60
2019-01-31T21:13:22.948Z,22.50
2019-01-31T21:16:11.111Z,20.70
2019-01-31T21:18:59.216Z,19.00
2019-01-31T21:21:47.361Z,20.47
2019-01-31T21:24:35.485Z,21.10
2019-01-31T21:27:23.698Z,22.37
2019-01-31T21:37:22.126Z,18.60
2019-01-31T21:40:03.310Z,27.03
2019-01-31T21:42:44.277Z,24.33
2019-01-31T21:45:25.129Z,25.60
2019-01-31T21:48:05.521Z,24.37
2019-01-31T21:50:46.130Z,31.27
2019-01-31T21:53:26.761Z,29.73
2019-01-31T21:56:07.148Z,29.30
2019-01-31T21:58:47.753Z,33.67
2019-01-31T22:01:28.629Z,31.37
2019-01-31T22:04:09.513Z,32.73
2019-01-31T22:06:50.032Z,29.43
2019-01-31T22:09:30.871Z,34.43
2019-01-31T22:12:10.289Z,31.80
2019-01-31T22:14:58.332Z,32.43
2019-01-31T22:17:46.714Z,34.20
2019-01-31T22:20:34.862Z,37.23
2019-01-31T22:23:22.905Z,35.50
2019-01-31T22:26:11.042Z,35.53
2019-01-31T22:28:59.081Z,37.50
2019-01-31T22:31:47.417Z,32.77
2019-01-31T22:37:44.376Z,34.03
2019-01-31T22:40:32.504Z,34.67
2019-01-31T22:43:20.561Z,31.70
2019-01-31T22:46:08.705Z,31.17
2019-01-31T22:48:57.116Z,36.37
2019-01-31T22:51:45.241Z,35.97
2019-01-31T22:57:07.694Z,36.73
2019-01-31T22:59:48.300Z,34.20
2019-01-31T23:02:29.150Z,30.37
2019-01-31T23:05:09.761Z,29.80
2019-01-31T23:07:51.668Z,32.03
2019-01-31T23:10:32.761Z,32.33
2019-01-31T23:13:13.530Z,25.87
2019-01-31T23:15:54.786Z,29.87
2019-01-31T23:18:35.280Z,30.50
2019-01-31T23:21:15.953Z,32.87
2019-01-31T23:23:56.496Z,33.57
2019-01-31T23:26:37.408Z,31.63
2019-01-31T23:29:18.315Z,31.37
2019-01-31T23:31:58.855Z,26.07
2019-01-31T23:34:39.561Z,28.23
2019-01-31T23:37:20.830Z,31.00
2019-01-31T23:40:01.443Z,29.93
2019-01-31T23:42:41.858Z,31.13
2019-01-31T23:45:22.478Z,32.27
2019-01-31T23:48:03.193Z,30.60
2019-01-31T23:50:43.869Z,27.40
2019-01-31T23:53:24.789Z,29.53
2019-01-31T23:56:05.679Z,28.27
2019-01-31T23:58:46.494Z,31.23
